sensor_id;sensor_type;location;lat;lon;timestamp;temperature;humidity
31731;DHT22;18310;55.586;12.286;2022-12-20T00:01:26;9.20;77.70
31731;DHT22;18310;55.586;12.286;2022-12-20T00:04:32;9.00;77.60
31731;DHT22;18310;55.586;12.286;2022-12-20T00:07:35;9.20;77.70
31731;DHT22;18310;55.586;12.286;2022-12-20T00:10:40;9.20;77.70
31731;DHT22;18310;55.586;12.286;2022-12-20T00:13:45;9.20;77.70
31731;DHT22;18310;55.586;12.286;2022-12-20T00:16:48;9.20;77.70
31731;DHT22;18310;55.586;12.286;2022-12-20T00:19:53;9.00;78.70
31731;DHT22;18310;55.586;12.286;2022-12-20T00:22:56;9.30;77.60
31731;DHT22;18310;55.586;12.286;2022-12-20T00:26:01;9.30;77.70
31731;DHT22;18310;55.586;12.286;2022-12-20T00:29:06;9.30;77.90
31731;DHT22;18310;55.586;12.286;2022-12-20T00:32:09;9.30;77.80
31731;DHT22;18310;55.586;12.286;2022-12-20T00:35:13;9.30;78.40
31731;DHT22;18310;55.586;12.286;2022-12-20T00:38:16;9.30;77.80
31731;DHT22;18310;55.586;12.286;2022-12-20T00:41:22;9.40;77.80
31731;DHT22;18310;55.586;12.286;2022-12-20T00:44:26;9.30;77.70
31731;DHT22;18310;55.586;12.286;2022-12-20T00:47:30;9.30;77.70
31731;DHT22;18310;55.586;12.286;2022-12-20T00:50:35;9.10;77.70
31731;DHT22;18310;55.586;12.286;2022-12-20T00:53:39;9.90;78.20
31731;DHT22;18310;55.586;12.286;2022-12-20T00:56:43;9.70;78.10
31731;DHT22;18310;55.586;12.286;2022-12-20T00:59:46;9.40;79.10
31731;DHT22;18310;55.586;12.286;2022-12-20T01:02:49;9.40;77.60
31731;DHT22;18310;55.586;12.286;2022-12-20T01:05:55;9.40;77.70
31731;DHT22;18310;55.586;12.286;2022-12-20T01:09:00;9.40;77.70
31731;DHT22;18310;55.586;12.286;2022-12-20T01:12:03;9.40;77.60
31731;DHT22;18310;55.586;12.286;2022-12-20T01:15:07;9.40;77.50
31731;DHT22;18310;55.586;12.286;2022-12-20T01:18:11;9.40;77.60
31731;DHT22;18310;55.586;12.286;2022-12-20T01:21:17;9.40;77.60
31731;DHT22;18310;55.586;12.286;2022-12-20T01:24:22;9.20;77.60
31731;DHT22;18310;55.586;12.286;2022-12-20T01:27:25;9.30;77.50
31731;DHT22;18310;55.586;12.286;2022-12-20T01:30:29;9.40;77.60
31731;DHT22;18310;55.586;12.286;2022-12-20T01:33:32;9.40;78.30
31731;DHT22;18310;55.586;12.286;2022-12-20T01:36:37;9.40;77.40
31731;DHT22;18310;55.586;12.286;2022-12-20T01:39:40;9.40;77.50
31731;DHT22;18310;55.586;12.286;2022-12-20T01:42:43;9.40;77.60
31731;DHT22;18310;55.586;12.286;2022-12-20T01:45:46;9.40;77.40
31731;DHT22;18310;55.586;12.286;2022-12-20T01:48:53;9.40;77.50
31731;DHT22;18310;55.586;12.286;2022-12-20T01:52:03;9.40;77.60
31731;DHT22;18310;55.586;12.286;2022-12-20T01:55:14;9.40;78.00
31731;DHT22;18310;55.586;12.286;2022-12-20T01:58:20;9.40;77.60
31731;DHT22;18310;55.586;12.286;2022-12-20T02:01:24;9.40;77.50
31731;DHT22;18310;55.586;12.286;2022-12-20T02:04:27;9.40;77.60
31731;DHT22;18310;55.586;12.286;2022-12-20T02:07:33;9.40;77.50
31731;DHT22;18310;55.586;12.286;2022-12-20T02:10:49;9.40;77.60
31731;DHT22;18310;55.586;12.286;2022-12-20T02:14:09;9.40;77.80
31731;DHT22;18310;55.586;12.286;2022-12-20T02:17:27;9.30;77.70
31731;DHT22;18310;55.586;12.286;2022-12-20T02:21:07;9.30;77.60
31731;DHT22;18310;55.586;12.286;2022-12-20T02:24:48;9.30;78.00
31731;DHT22;18310;55.586;12.286;2022-12-20T02:28:04;9.40;78.20
31731;DHT22;18310;55.586;12.286;2022-12-20T02:31:32;9.30;77.60
31731;DHT22;18310;55.586;12.286;2022-12-20T02:34:40;9.40;77.90
31731;DHT22;18310;55.586;12.286;2022-12-20T02:37:49;9.30;77.70
31731;DHT22;18310;55.586;12.286;2022-12-20T02:40:58;8.40;77.20
31731;DHT22;18310;55.586;12.286;2022-12-20T02:44:06;9.40;77.80
31731;DHT22;18310;55.586;12.286;2022-12-20T02:47:35;9.40;77.70
31731;DHT22;18310;55.586;12.286;2022-12-20T02:50:44;8.70;77.40
31731;DHT22;18310;55.586;12.286;2022-12-20T02:53:50;9.90;78.00
31731;DHT22;18310;55.586;12.286;2022-12-20T02:56:57;8.30;76.90
31731;DHT22;18310;55.586;12.286;2022-12-20T03:00:08;9.40;77.60
31731;DHT22;18310;55.586;12.286;2022-12-20T03:03:16;9.40;77.60
31731;DHT22;18310;55.586;12.286;2022-12-20T03:06:25;9.40;77.50
31731;DHT22;18310;55.586;12.286;2022-12-20T03:09:30;9.40;77.40
31731;DHT22;18310;55.586;12.286;2022-12-20T03:12:35;9.40;78.20
31731;DHT22;18310;55.586;12.286;2022-12-20T03:15:38;9.50;77.40
31731;DHT22;18310;55.586;12.286;2022-12-20T03:18:43;9.40;77.50
31731;DHT22;18310;55.586;12.286;2022-12-20T03:21:47;9.40;77.60
31731;DHT22;18310;55.586;12.286;2022-12-20T03:24:50;9.40;77.60
31731;DHT22;18310;55.586;12.286;2022-12-20T03:27:53;9.40;77.60
31731;DHT22;18310;55.586;12.286;2022-12-20T03:30:56;9.40;77.70
31731;DHT22;18310;55.586;12.286;2022-12-20T03:34:01;9.40;77.60
31731;DHT22;18310;55.586;12.286;2022-12-20T03:37:04;9.40;77.70
31731;DHT22;18310;55.586;12.286;2022-12-20T03:40:08;9.40;77.70
31731;DHT22;18310;55.586;12.286;2022-12-20T03:43:13;9.50;77.80
31731;DHT22;18310;55.586;12.286;2022-12-20T03:46:16;10.30;78.20
31731;DHT22;18310;55.586;12.286;2022-12-20T03:49:21;9.50;77.90
31731;DHT22;18310;55.586;12.286;2022-12-20T03:52:24;9.20;77.60
31731;DHT22;18310;55.586;12.286;2022-12-20T03:55:27;9.50;77.80
31731;DHT22;18310;55.586;12.286;2022-12-20T03:58:30;9.50;77.80
31731;DHT22;18310;55.586;12.286;2022-12-20T04:01:33;9.50;77.80
31731;DHT22;18310;55.586;12.286;2022-12-20T04:04:40;9.50;77.70
31731;DHT22;18310;55.586;12.286;2022-12-20T04:07:44;9.90;77.90
31731;DHT22;18310;55.586;12.286;2022-12-20T04:10:47;9.60;77.60
31731;DHT22;18310;55.586;12.286;2022-12-20T04:14:04;9.60;77.60
31731;DHT22;18310;55.586;12.286;2022-12-20T04:17:07;9.70;77.80
31731;DHT22;18310;55.586;12.286;2022-12-20T04:20:15;9.50;77.70
31731;DHT22;18310;55.586;12.286;2022-12-20T04:23:21;9.60;77.90
31731;DHT22;18310;55.586;12.286;2022-12-20T04:26:24;9.50;77.60
31731;DHT22;18310;55.586;12.286;2022-12-20T04:29:28;9.70;77.80
31731;DHT22;18310;55.586;12.286;2022-12-20T04:32:31;9.50;77.70
31731;DHT22;18310;55.586;12.286;2022-12-20T04:35:36;9.60;77.70
31731;DHT22;18310;55.586;12.286;2022-12-20T04:38:39;9.60;77.80
31731;DHT22;18310;55.586;12.286;2022-12-20T04:41:43;9.60;77.80
31731;DHT22;18310;55.586;12.286;2022-12-20T04:44:46;9.60;77.80
31731;DHT22;18310;55.586;12.286;2022-12-20T04:47:49;9.60;77.70
31731;DHT22;18310;55.586;12.286;2022-12-20T04:50:53;9.60;77.70
31731;DHT22;18310;55.586;12.286;2022-12-20T04:53:57;10.80;78.30
31731;DHT22;18310;55.586;12.286;2022-12-20T04:56:59;9.70;77.60
31731;DHT22;18310;55.586;12.286;2022-12-20T05:00:03;10.20;77.80
31731;DHT22;18310;55.586;12.286;2022-12-20T05:03:07;9.70;77.50
31731;DHT22;18310;55.586;12.286;2022-12-20T05:06:12;9.60;77.40
31731;DHT22;18310;55.586;12.286;2022-12-20T05:09:16;10.20;77.80
31731;DHT22;18310;55.586;12.286;2022-12-20T05:12:19;9.90;77.70
31731;DHT22;18310;55.586;12.286;2022-12-20T05:15:22;9.60;77.50
31731;DHT22;18310;55.586;12.286;2022-12-20T05:18:26;9.70;77.50
31731;DHT22;18310;55.586;12.286;2022-12-20T05:21:30;9.60;77.50
31731;DHT22;18310;55.586;12.286;2022-12-20T05:24:51;9.70;77.70
31731;DHT22;18310;55.586;12.286;2022-12-20T05:28:12;9.70;77.60
31731;DHT22;18310;55.586;12.286;2022-12-20T05:31:16;9.70;77.50
31731;DHT22;18310;55.586;12.286;2022-12-20T05:34:20;9.70;77.60
31731;DHT22;18310;55.586;12.286;2022-12-20T05:37:24;9.70;77.70
31731;DHT22;18310;55.586;12.286;2022-12-20T05:40:27;9.50;77.60
31731;DHT22;18310;55.586;12.286;2022-12-20T05:43:31;9.70;77.70
31731;DHT22;18310;55.586;12.286;2022-12-20T05:46:34;9.70;77.70
31731;DHT22;18310;55.586;12.286;2022-12-20T05:49:38;9.70;77.80
31731;DHT22;18310;55.586;12.286;2022-12-20T05:52:42;9.80;78.30
31731;DHT22;18310;55.586;12.286;2022-12-20T05:55:48;9.80;78.00
31731;DHT22;18310;55.586;12.286;2022-12-20T05:58:52;9.80;78.00
31731;DHT22;18310;55.586;12.286;2022-12-20T06:01:56;9.80;77.90
31731;DHT22;18310;55.586;12.286;2022-12-20T06:04:59;9.80;77.90
31731;DHT22;18310;55.586;12.286;2022-12-20T06:08:05;9.80;78.60
31731;DHT22;18310;55.586;12.286;2022-12-20T06:11:08;9.90;77.40
31731;DHT22;18310;55.586;12.286;2022-12-20T06:14:12;9.90;77.80
31731;DHT22;18310;55.586;12.286;2022-12-20T06:17:15;9.90;77.80
31731;DHT22;18310;55.586;12.286;2022-12-20T06:20:20;9.90;77.90
31731;DHT22;18310;55.586;12.286;2022-12-20T06:23:25;9.90;77.90
31731;DHT22;18310;55.586;12.286;2022-12-20T06:26:28;9.90;78.00
31731;DHT22;18310;55.586;12.286;2022-12-20T06:29:36;10.00;78.00
31731;DHT22;18310;55.586;12.286;2022-12-20T06:32:39;10.00;78.00
31731;DHT22;18310;55.586;12.286;2022-12-20T06:35:42;10.00;78.10
31731;DHT22;18310;55.586;12.286;2022-12-20T06:38:47;10.00;78.00
31731;DHT22;18310;55.586;12.286;2022-12-20T06:41:50;11.00;78.60
31731;DHT22;18310;55.586;12.286;2022-12-20T06:44:53;10.10;78.00
31731;DHT22;18310;55.586;12.286;2022-12-20T06:47:56;10.10;78.00
31731;DHT22;18310;55.586;12.286;2022-12-20T06:50:59;10.10;77.90
31731;DHT22;18310;55.586;12.286;2022-12-20T06:54:04;10.10;77.90
31731;DHT22;18310;55.586;12.286;2022-12-20T06:57:08;10.20;78.00
31731;DHT22;18310;55.586;12.286;2022-12-20T07:00:12;10.20;77.90
31731;DHT22;18310;55.586;12.286;2022-12-20T07:03:15;10.20;77.90
31731;DHT22;18310;55.586;12.286;2022-12-20T07:06:19;10.20;77.90
31731;DHT22;18310;55.586;12.286;2022-12-20T07:09:23;10.20;77.80
31731;DHT22;18310;55.586;12.286;2022-12-20T07:12:26;10.30;77.90
31731;DHT22;18310;55.586;12.286;2022-12-20T07:15:29;9.20;77.20
31731;DHT22;18310;55.586;12.286;2022-12-20T07:18:33;10.20;77.80
31731;DHT22;18310;55.586;12.286;2022-12-20T07:21:37;10.30;77.80
31731;DHT22;18310;55.586;12.286;2022-12-20T07:24:41;10.30;78.50
31731;DHT22;18310;55.586;12.286;2022-12-20T07:27:46;10.30;77.70
31731;DHT22;18310;55.586;12.286;2022-12-20T07:30:50;10.30;77.80
31731;DHT22;18310;55.586;12.286;2022-12-20T07:33:53;10.30;78.00
31731;DHT22;18310;55.586;12.286;2022-12-20T07:36:56;10.70;78.00
31731;DHT22;18310;55.586;12.286;2022-12-20T07:40:01;10.30;77.90
31731;DHT22;18310;55.586;12.286;2022-12-20T07:43:04;10.30;77.70
31731;DHT22;18310;55.586;12.286;2022-12-20T07:46:08;10.30;77.60
31731;DHT22;18310;55.586;12.286;2022-12-20T07:49:14;10.30;77.70
31731;DHT22;18310;55.586;12.286;2022-12-20T07:52:20;10.20;77.80
31731;DHT22;18310;55.586;12.286;2022-12-20T07:55:26;10.20;77.80
31731;DHT22;18310;55.586;12.286;2022-12-20T07:58:32;9.50;77.10
31731;DHT22;18310;55.586;12.286;2022-12-20T08:01:37;10.20;77.70
31731;DHT22;18310;55.586;12.286;2022-12-20T08:04:43;10.30;77.80
31731;DHT22;18310;55.586;12.286;2022-12-20T08:07:46;10.30;77.80
31731;DHT22;18310;55.586;12.286;2022-12-20T08:11:01;10.30;77.80
31731;DHT22;18310;55.586;12.286;2022-12-20T08:14:06;11.20;78.30
31731;DHT22;18310;55.586;12.286;2022-12-20T08:17:09;10.10;77.60
31731;DHT22;18310;55.586;12.286;2022-12-20T08:20:13;10.30;77.70
31731;DHT22;18310;55.586;12.286;2022-12-20T08:23:16;10.30;77.80
31731;DHT22;18310;55.586;12.286;2022-12-20T08:26:21;10.30;77.80
31731;DHT22;18310;55.586;12.286;2022-12-20T08:29:24;10.30;77.80
31731;DHT22;18310;55.586;12.286;2022-12-20T08:32:29;9.60;77.40
31731;DHT22;18310;55.586;12.286;2022-12-20T08:35:32;10.40;78.40
31731;DHT22;18310;55.586;12.286;2022-12-20T08:38:36;10.40;77.70
31731;DHT22;18310;55.586;12.286;2022-12-20T08:41:40;10.40;77.70
31731;DHT22;18310;55.586;12.286;2022-12-20T08:44:44;10.40;77.80
31731;DHT22;18310;55.586;12.286;2022-12-20T08:47:47;10.40;77.80
31731;DHT22;18310;55.586;12.286;2022-12-20T08:50:53;10.50;77.80
31731;DHT22;18310;55.586;12.286;2022-12-20T08:53:58;10.50;78.00
31731;DHT22;18310;55.586;12.286;2022-12-20T08:57:02;10.50;77.90
31731;DHT22;18310;55.586;12.286;2022-12-20T09:00:06;10.50;78.00
31731;DHT22;18310;55.586;12.286;2022-12-20T09:03:11;10.50;78.00
31731;DHT22;18310;55.586;12.286;2022-12-20T09:06:17;10.50;78.00
31731;DHT22;18310;55.586;12.286;2022-12-20T09:09:22;10.40;78.00
31731;DHT22;18310;55.586;12.286;2022-12-20T09:12:26;10.60;78.20
31731;DHT22;18310;55.586;12.286;2022-12-20T09:15:29;10.60;78.30
31731;DHT22;18310;55.586;12.286;2022-12-20T09:18:33;10.70;78.40
31731;DHT22;18310;55.586;12.286;2022-12-20T09:21:37;10.70;78.40
31731;DHT22;18310;55.586;12.286;2022-12-20T09:24:40;10.80;78.40
31731;DHT22;18310;55.586;12.286;2022-12-20T09:27:44;10.80;78.40
31731;DHT22;18310;55.586;12.286;2022-12-20T09:30:47;10.90;78.50
31731;DHT22;18310;55.586;12.286;2022-12-20T09:33:52;10.90;78.40
31731;DHT22;18310;55.586;12.286;2022-12-20T09:36:56;10.90;78.50
31731;DHT22;18310;55.586;12.286;2022-12-20T09:39:59;12.10;79.10
31731;DHT22;18310;55.586;12.286;2022-12-20T09:43:07;11.00;78.40
31731;DHT22;18310;55.586;12.286;2022-12-20T09:46:14;11.00;78.60
31731;DHT22;18310;55.586;12.286;2022-12-20T09:49:18;11.10;78.50
31731;DHT22;18310;55.586;12.286;2022-12-20T09:52:29;11.10;78.40
31731;DHT22;18310;55.586;12.286;2022-12-20T09:55:47;11.20;78.60
31731;DHT22;18310;55.586;12.286;2022-12-20T09:58:58;11.20;78.60
31731;DHT22;18310;55.586;12.286;2022-12-20T10:02:08;11.30;79.00
31731;DHT22;18310;55.586;12.286;2022-12-20T10:05:38;11.30;78.40
31731;DHT22;18310;55.586;12.286;2022-12-20T10:08:50;11.30;78.40
31731;DHT22;18310;55.586;12.286;2022-12-20T10:12:03;11.30;78.40
31731;DHT22;18310;55.586;12.286;2022-12-20T10:15:21;11.30;78.40
31731;DHT22;18310;55.586;12.286;2022-12-20T10:18:41;11.40;78.40
31731;DHT22;18310;55.586;12.286;2022-12-20T10:21:59;11.40;78.50
31731;DHT22;18310;55.586;12.286;2022-12-20T10:25:16;11.50;78.50
31731;DHT22;18310;55.586;12.286;2022-12-20T10:28:25;11.50;78.40
31731;DHT22;18310;55.586;12.286;2022-12-20T10:31:32;11.60;78.30
31731;DHT22;18310;55.586;12.286;2022-12-20T10:34:36;11.60;78.20
31731;DHT22;18310;55.586;12.286;2022-12-20T10:38:00;11.70;78.20
31731;DHT22;18310;55.586;12.286;2022-12-20T10:41:14;11.70;78.20
31731;DHT22;18310;55.586;12.286;2022-12-20T10:44:25;11.70;78.00
31731;DHT22;18310;55.586;12.286;2022-12-20T10:47:39;11.70;77.90
31731;DHT22;18310;55.586;12.286;2022-12-20T10:50:55;11.80;77.80
31731;DHT22;18310;55.586;12.286;2022-12-20T10:54:00;11.80;77.80
31731;DHT22;18310;55.586;12.286;2022-12-20T10:57:17;11.80;77.70
31731;DHT22;18310;55.586;12.286;2022-12-20T11:00:27;11.80;77.80
31731;DHT22;18310;55.586;12.286;2022-12-20T11:03:48;11.80;77.60
31731;DHT22;18310;55.586;12.286;2022-12-20T11:06:55;11.80;77.80
31731;DHT22;18310;55.586;12.286;2022-12-20T11:09:58;11.80;77.60
31731;DHT22;18310;55.586;12.286;2022-12-20T11:13:03;11.90;78.00
31731;DHT22;18310;55.586;12.286;2022-12-20T11:16:22;11.90;77.50
31731;DHT22;18310;55.586;12.286;2022-12-20T11:19:46;11.80;77.60
31731;DHT22;18310;55.586;12.286;2022-12-20T11:23:05;11.80;77.60
31731;DHT22;18310;55.586;12.286;2022-12-20T11:26:30;11.10;77.20
31731;DHT22;18310;55.586;12.286;2022-12-20T11:33:31;11.30;77.40
31731;DHT22;18310;55.586;12.286;2022-12-20T11:36:55;11.80;77.80
31731;DHT22;18310;55.586;12.286;2022-12-20T11:40:26;11.80;77.80
31731;DHT22;18310;55.586;12.286;2022-12-20T11:43:47;11.80;77.80
31731;DHT22;18310;55.586;12.286;2022-12-20T11:47:39;11.80;77.80
31731;DHT22;18310;55.586;12.286;2022-12-20T11:51:00;12.40;78.00
31731;DHT22;18310;55.586;12.286;2022-12-20T11:54:13;11.80;77.70
31731;DHT22;18310;55.586;12.286;2022-12-20T11:57:25;11.70;77.60
31731;DHT22;18310;55.586;12.286;2022-12-20T12:00:59;11.80;77.70
31731;DHT22;18310;55.586;12.286;2022-12-20T12:04:10;11.70;77.60
31731;DHT22;18310;55.586;12.286;2022-12-20T12:07:19;11.70;77.90
31731;DHT22;18310;55.586;12.286;2022-12-20T12:10:31;11.70;77.70
31731;DHT22;18310;55.586;12.286;2022-12-20T12:13:39;11.70;77.80
31731;DHT22;18310;55.586;12.286;2022-12-20T12:16:48;11.70;77.80
31731;DHT22;18310;55.586;12.286;2022-12-20T12:20:06;11.70;77.90
31731;DHT22;18310;55.586;12.286;2022-12-20T12:23:24;11.60;77.90
31731;DHT22;18310;55.586;12.286;2022-12-20T12:26:34;11.70;78.00
31731;DHT22;18310;55.586;12.286;2022-12-20T12:29:40;11.60;78.00
31731;DHT22;18310;55.586;12.286;2022-12-20T12:32:46;12.40;78.60
31731;DHT22;18310;55.586;12.286;2022-12-20T12:36:15;11.70;78.30
31731;DHT22;18310;55.586;12.286;2022-12-20T12:43:43;11.90;78.40
31731;DHT22;18310;55.586;12.286;2022-12-20T12:46:53;11.90;78.30
31731;DHT22;18310;55.586;12.286;2022-12-20T12:50:05;11.90;78.50
31731;DHT22;18310;55.586;12.286;2022-12-20T12:53:20;11.90;77.90
31731;DHT22;18310;55.586;12.286;2022-12-20T12:56:34;11.90;77.90
31731;DHT22;18310;55.586;12.286;2022-12-20T12:59:49;12.00;77.50
31731;DHT22;18310;55.586;12.286;2022-12-20T13:02:53;11.90;78.30
31731;DHT22;18310;55.586;12.286;2022-12-20T13:05:56;12.00;77.80
31731;DHT22;18310;55.586;12.286;2022-12-20T13:09:16;12.00;77.90
31731;DHT22;18310;55.586;12.286;2022-12-20T13:12:52;12.00;77.80
31731;DHT22;18310;55.586;12.286;2022-12-20T13:16:27;11.80;77.60
31731;DHT22;18310;55.586;12.286;2022-12-20T13:19:53;12.00;77.70
31731;DHT22;18310;55.586;12.286;2022-12-20T13:23:14;12.00;77.50
31731;DHT22;18310;55.586;12.286;2022-12-20T13:26:41;12.00;77.30
31731;DHT22;18310;55.586;12.286;2022-12-20T13:29:54;12.00;77.20
31731;DHT22;18310;55.586;12.286;2022-12-20T13:33:37;12.00;77.20
31731;DHT22;18310;55.586;12.286;2022-12-20T13:36:42;12.00;77.10
31731;DHT22;18310;55.586;12.286;2022-12-20T13:39:46;12.00;77.10
31731;DHT22;18310;55.586;12.286;2022-12-20T13:42:51;12.00;77.10
31731;DHT22;18310;55.586;12.286;2022-12-20T13:46:12;12.00;77.10
31731;DHT22;18310;55.586;12.286;2022-12-20T13:49:21;12.00;77.20
31731;DHT22;18310;55.586;12.286;2022-12-20T13:52:29;12.00;77.20
31731;DHT22;18310;55.586;12.286;2022-12-20T13:55:36;12.00;77.20
31731;DHT22;18310;55.586;12.286;2022-12-20T13:58:42;12.00;77.10
31731;DHT22;18310;55.586;12.286;2022-12-20T14:01:48;11.90;77.00
31731;DHT22;18310;55.586;12.286;2022-12-20T14:04:58;11.90;76.90
31731;DHT22;18310;55.586;12.286;2022-12-20T14:08:06;11.80;76.80
31731;DHT22;18310;55.586;12.286;2022-12-20T14:11:12;11.80;76.80
31731;DHT22;18310;55.586;12.286;2022-12-20T14:14:17;11.80;76.70
31731;DHT22;18310;55.586;12.286;2022-12-20T14:17:25;11.70;76.80
31731;DHT22;18310;55.586;12.286;2022-12-20T14:20:32;11.70;77.20
31731;DHT22;18310;55.586;12.286;2022-12-20T14:23:38;11.70;77.40
31731;DHT22;18310;55.586;12.286;2022-12-20T14:26:44;11.70;77.50
31731;DHT22;18310;55.586;12.286;2022-12-20T14:29:51;11.70;78.10
31731;DHT22;18310;55.586;12.286;2022-12-20T14:32:54;11.70;77.60
31731;DHT22;18310;55.586;12.286;2022-12-20T14:36:08;11.70;77.60
31731;DHT22;18310;55.586;12.286;2022-12-20T14:39:24;11.70;77.90
31731;DHT22;18310;55.586;12.286;2022-12-20T14:42:33;11.70;77.90
31731;DHT22;18310;55.586;12.286;2022-12-20T14:45:37;11.70;77.80
31731;DHT22;18310;55.586;12.286;2022-12-20T14:48:40;11.70;77.80
31731;DHT22;18310;55.586;12.286;2022-12-20T14:51:44;11.70;77.80
31731;DHT22;18310;55.586;12.286;2022-12-20T14:54:55;11.70;77.90
31731;DHT22;18310;55.586;12.286;2022-12-20T14:58:22;11.70;78.00
31731;DHT22;18310;55.586;12.286;2022-12-20T15:01:26;11.70;78.40
31731;DHT22;18310;55.586;12.286;2022-12-20T15:04:34;11.80;77.70
31731;DHT22;18310;55.586;12.286;2022-12-20T15:07:40;11.70;77.80
31731;DHT22;18310;55.586;12.286;2022-12-20T15:10:58;11.70;77.90
31731;DHT22;18310;55.586;12.286;2022-12-20T15:14:14;11.70;78.00
31731;DHT22;18310;55.586;12.286;2022-12-20T15:17:33;11.70;78.10
31731;DHT22;18310;55.586;12.286;2022-12-20T15:20:36;11.70;77.90
31731;DHT22;18310;55.586;12.286;2022-12-20T15:23:41;11.70;77.90
31731;DHT22;18310;55.586;12.286;2022-12-20T15:26:47;11.70;78.00
31731;DHT22;18310;55.586;12.286;2022-12-20T15:29:50;11.70;78.00
31731;DHT22;18310;55.586;12.286;2022-12-20T15:32:53;11.70;78.00
31731;DHT22;18310;55.586;12.286;2022-12-20T15:35:56;11.70;77.90
31731;DHT22;18310;55.586;12.286;2022-12-20T15:39:01;11.70;78.00
31731;DHT22;18310;55.586;12.286;2022-12-20T15:42:15;11.70;78.00
31731;DHT22;18310;55.586;12.286;2022-12-20T15:45:19;11.70;78.10
31731;DHT22;18310;55.586;12.286;2022-12-20T15:48:23;11.70;78.00
31731;DHT22;18310;55.586;12.286;2022-12-20T15:51:29;11.80;78.50
31731;DHT22;18310;55.586;12.286;2022-12-20T15:54:35;11.70;77.80
31731;DHT22;18310;55.586;12.286;2022-12-20T15:57:39;11.70;77.80
31731;DHT22;18310;55.586;12.286;2022-12-20T16:00:42;11.70;77.70
31731;DHT22;18310;55.586;12.286;2022-12-20T16:03:45;11.70;77.60
31731;DHT22;18310;55.586;12.286;2022-12-20T16:06:50;11.70;77.50
31731;DHT22;18310;55.586;12.286;2022-12-20T16:09:55;11.70;77.40
31731;DHT22;18310;55.586;12.286;2022-12-20T16:12:58;11.70;77.40
31731;DHT22;18310;55.586;12.286;2022-12-20T16:16:00;11.60;77.60
31731;DHT22;18310;55.586;12.286;2022-12-20T16:19:03;11.60;77.10
31731;DHT22;18310;55.586;12.286;2022-12-20T16:22:12;11.50;76.90
31731;DHT22;18310;55.586;12.286;2022-12-20T16:25:24;11.50;76.70
31731;DHT22;18310;55.586;12.286;2022-12-20T16:28:30;11.40;76.40
31731;DHT22;18310;55.586;12.286;2022-12-20T16:31:35;11.30;76.50
31731;DHT22;18310;55.586;12.286;2022-12-20T16:34:39;11.20;76.50
31731;DHT22;18310;55.586;12.286;2022-12-20T16:37:42;11.20;76.60
31731;DHT22;18310;55.586;12.286;2022-12-20T16:40:47;11.10;76.70
31731;DHT22;18310;55.586;12.286;2022-12-20T16:43:50;11.50;77.00
31731;DHT22;18310;55.586;12.286;2022-12-20T16:46:53;11.00;77.00
31731;DHT22;18310;55.586;12.286;2022-12-20T16:49:56;12.00;77.80
31731;DHT22;18310;55.586;12.286;2022-12-20T16:53:00;11.00;77.50
31731;DHT22;18310;55.586;12.286;2022-12-20T16:56:05;11.80;78.20
31731;DHT22;18310;55.586;12.286;2022-12-20T16:59:09;11.10;78.00
31731;DHT22;18310;55.586;12.286;2022-12-20T17:02:26;11.10;78.10
31731;DHT22;18310;55.586;12.286;2022-12-20T17:05:33;11.10;78.40
31731;DHT22;18310;55.586;12.286;2022-12-20T17:08:40;11.20;78.50
31731;DHT22;18310;55.586;12.286;2022-12-20T17:12:02;11.20;78.60
31731;DHT22;18310;55.586;12.286;2022-12-20T17:15:17;11.30;78.70
31731;DHT22;18310;55.586;12.286;2022-12-20T17:18:23;11.30;78.80
31731;DHT22;18310;55.586;12.286;2022-12-20T17:21:31;11.30;78.60
31731;DHT22;18310;55.586;12.286;2022-12-20T17:24:54;11.40;78.80
31731;DHT22;18310;55.586;12.286;2022-12-20T17:27:59;12.60;79.30
31731;DHT22;18310;55.586;12.286;2022-12-20T17:31:02;11.40;78.70
31731;DHT22;18310;55.586;12.286;2022-12-20T17:34:17;11.50;78.70
31731;DHT22;18310;55.586;12.286;2022-12-20T17:37:21;11.50;78.80
31731;DHT22;18310;55.586;12.286;2022-12-20T17:40:27;11.50;78.60
31731;DHT22;18310;55.586;12.286;2022-12-20T17:43:32;11.50;78.60
31731;DHT22;18310;55.586;12.286;2022-12-20T17:46:36;11.60;78.60
31731;DHT22;18310;55.586;12.286;2022-12-20T17:49:39;11.60;78.60
31731;DHT22;18310;55.586;12.286;2022-12-20T17:52:43;11.60;78.60
31731;DHT22;18310;55.586;12.286;2022-12-20T17:55:47;11.60;78.60
31731;DHT22;18310;55.586;12.286;2022-12-20T17:58:52;11.60;78.60
31731;DHT22;18310;55.586;12.286;2022-12-20T18:01:55;11.60;78.60
31731;DHT22;18310;55.586;12.286;2022-12-20T18:04:59;11.70;78.60
31731;DHT22;18310;55.586;12.286;2022-12-20T18:08:02;11.70;78.60
31731;DHT22;18310;55.586;12.286;2022-12-20T18:11:05;11.60;78.60
31731;DHT22;18310;55.586;12.286;2022-12-20T18:14:10;11.70;78.60
31731;DHT22;18310;55.586;12.286;2022-12-20T18:17:13;11.70;78.60
31731;DHT22;18310;55.586;12.286;2022-12-20T18:20:17;11.80;78.60
31731;DHT22;18310;55.586;12.286;2022-12-20T18:23:20;11.80;78.70
31731;DHT22;18310;55.586;12.286;2022-12-20T18:26:25;11.80;78.60
31731;DHT22;18310;55.586;12.286;2022-12-20T18:29:31;11.80;78.60
31731;DHT22;18310;55.586;12.286;2022-12-20T18:32:34;11.80;78.60
31731;DHT22;18310;55.586;12.286;2022-12-20T18:35:37;11.70;78.60
31731;DHT22;18310;55.586;12.286;2022-12-20T18:38:41;11.80;78.50
31731;DHT22;18310;55.586;12.286;2022-12-20T18:41:46;11.80;78.50
31731;DHT22;18310;55.586;12.286;2022-12-20T18:44:51;11.80;78.50
31731;DHT22;18310;55.586;12.286;2022-12-20T18:47:54;11.80;78.50
31731;DHT22;18310;55.586;12.286;2022-12-20T18:51:02;11.80;78.40
31731;DHT22;18310;55.586;12.286;2022-12-20T18:54:09;11.80;78.50
31731;DHT22;18310;55.586;12.286;2022-12-20T18:57:14;11.70;78.40
31731;DHT22;18310;55.586;12.286;2022-12-20T19:00:19;12.10;78.60
31731;DHT22;18310;55.586;12.286;2022-12-20T19:03:23;11.70;78.50
31731;DHT22;18310;55.586;12.286;2022-12-20T19:06:26;10.70;77.80
31731;DHT22;18310;55.586;12.286;2022-12-20T19:09:29;11.80;78.40
31731;DHT22;18310;55.586;12.286;2022-12-20T19:12:33;11.80;78.40
31731;DHT22;18310;55.586;12.286;2022-12-20T19:15:38;11.70;78.30
31731;DHT22;18310;55.586;12.286;2022-12-20T19:18:42;12.90;79.10
31731;DHT22;18310;55.586;12.286;2022-12-20T19:21:46;12.10;78.60
31731;DHT22;18310;55.586;12.286;2022-12-20T19:24:49;12.00;78.50
31731;DHT22;18310;55.586;12.286;2022-12-20T19:27:53;11.70;78.40
31731;DHT22;18310;55.586;12.286;2022-12-20T19:31:04;11.70;78.40
31731;DHT22;18310;55.586;12.286;2022-12-20T19:34:10;11.70;78.60
31731;DHT22;18310;55.586;12.286;2022-12-20T19:37:14;11.70;78.50
31731;DHT22;18310;55.586;12.286;2022-12-20T19:40:18;11.70;78.50